Anthony, Florida
Current Conditions -  °F | °C
As of 6:50 PM on Saturday 25 Oct 2014 (Local Time) from KOCF Reporting Station
Clear Clear  
Wind Chill: 68°   Ceiling: Unl
Heat Index: 68°   Visibility: 10mi
Dew Point: 48°   Wind: 0mph
Humidity: 49%   Direction: NA
Pressure: 29.97"   Gusts: NA
Location:  29.29°N, 82.11°W
Report Text: KOCF 252250Z 00000KT 10SM CLR 20/09 A2997
Loading
Personal Weather Stations






























Interactive Weather Map
Tropical Storm Tracking
New forecast layout! Learn more

10-Day Weather Forecast

Advertisements
Track Severe Weather on mobile